createdAt,value
2022-12-08T00:01:22.528Z,100193
2022-12-08T00:06:22.523Z,100200
2022-12-08T00:11:22.535Z,100197
2022-12-08T00:16:22.538Z,100197
2022-12-08T00:21:22.545Z,100190
2022-12-08T00:26:22.585Z,100195
2022-12-08T00:31:22.573Z,100195
2022-12-08T00:36:22.573Z,100196
2022-12-08T00:41:22.713Z,100204
2022-12-08T00:46:22.617Z,100206
2022-12-08T00:51:22.948Z,100206
2022-12-08T00:56:22.522Z,100208
2022-12-08T01:01:22.820Z,100207
2022-12-08T01:06:22.800Z,100208
2022-12-08T01:11:22.543Z,100208
2022-12-08T01:16:22.836Z,100207
2022-12-08T01:21:22.601Z,100201
2022-12-08T01:31:23.241Z,100208
2022-12-08T01:36:22.660Z,100204
2022-12-08T01:41:22.822Z,100199
2022-12-08T01:46:22.713Z,100198
2022-12-08T01:51:22.828Z,100191
2022-12-08T02:01:22.865Z,100184
2022-12-08T02:06:22.580Z,100184
2022-12-08T02:11:22.737Z,100181
2022-12-08T02:16:22.940Z,100179
2022-12-08T02:21:22.541Z,100183
2022-12-08T02:26:22.865Z,100183
2022-12-08T02:31:22.729Z,100180
2022-12-08T02:36:22.837Z,100178
2022-12-08T02:41:22.629Z,100178
2022-12-08T02:46:22.897Z,100153
2022-12-08T02:51:22.594Z,100154
2022-12-08T02:56:22.574Z,100154
2022-12-08T03:01:22.653Z,100170
2022-12-08T03:06:22.571Z,100151
2022-12-08T03:11:22.597Z,100147
2022-12-08T03:16:22.686Z,100147
2022-12-08T03:21:22.837Z,100150
2022-12-08T03:26:22.646Z,100145
2022-12-08T03:31:22.726Z,100141
2022-12-08T03:36:22.665Z,100145
2022-12-08T03:41:22.783Z,100144
2022-12-08T03:51:22.720Z,100147
2022-12-08T03:56:22.610Z,100153
2022-12-08T04:01:23.112Z,100150
2022-12-08T04:11:22.970Z,100145
2022-12-08T04:16:22.745Z,100135
2022-12-08T04:21:22.668Z,100135
2022-12-08T04:31:22.978Z,100121
2022-12-08T04:36:22.792Z,100128
2022-12-08T04:41:22.624Z,100133
2022-12-08T04:46:22.702Z,100126
2022-12-08T04:51:22.634Z,100115
2022-12-08T04:56:22.714Z,100120
2022-12-08T05:01:22.934Z,100120
2022-12-08T05:06:22.699Z,100119
2022-12-08T05:11:22.836Z,100118
2022-12-08T05:16:22.703Z,100124
2022-12-08T05:21:22.784Z,100124
2022-12-08T05:26:22.618Z,100122
2022-12-08T05:31:22.883Z,100122
2022-12-08T05:36:22.639Z,100127
2022-12-08T05:41:22.699Z,100113
2022-12-08T05:46:22.710Z,100108
2022-12-08T05:51:22.723Z,100118
2022-12-08T05:56:22.669Z,100108
2022-12-08T06:01:22.614Z,100112
2022-12-08T06:06:22.685Z,100124
2022-12-08T06:11:22.632Z,100124
2022-12-08T06:16:22.691Z,100121
2022-12-08T06:21:22.671Z,100131
2022-12-08T06:26:22.744Z,100131
2022-12-08T06:31:22.922Z,100136
2022-12-08T06:41:22.883Z,100146
2022-12-08T06:46:22.755Z,100140
2022-12-08T06:51:22.842Z,100142
2022-12-08T06:56:22.720Z,100142
2022-12-08T07:01:23.006Z,100143
2022-12-08T07:06:22.966Z,100146
2022-12-08T07:11:22.960Z,100145
2022-12-08T07:16:22.930Z,100145
2022-12-08T07:21:22.676Z,100145
2022-12-08T07:26:22.670Z,100139
2022-12-08T07:31:22.816Z,100136
2022-12-08T07:36:22.878Z,100142
2022-12-08T07:41:23.609Z,100142
2022-12-08T07:46:22.892Z,100139
2022-12-08T07:51:23.238Z,100141
2022-12-08T07:56:22.765Z,100137
2022-12-08T08:01:22.826Z,100140
2022-12-08T08:06:22.692Z,100133
2022-12-08T08:11:22.904Z,100131
2022-12-08T08:16:22.806Z,100138
2022-12-08T08:21:44.505Z,100141
2022-12-08T08:26:22.725Z,100146
2022-12-08T08:31:22.935Z,100146
2022-12-08T08:36:22.840Z,100136
2022-12-08T08:41:22.740Z,100139
2022-12-08T08:46:22.799Z,100133
2022-12-08T08:51:22.718Z,100138
2022-12-08T08:56:22.721Z,100137
2022-12-08T09:01:22.732Z,100118
2022-12-08T09:06:22.904Z,100118
2022-12-08T09:11:23.054Z,100116
2022-12-08T09:16:22.819Z,100118
2022-12-08T09:21:23.291Z,100115
2022-12-08T09:26:22.830Z,100115
2022-12-08T09:31:23.067Z,100096
2022-12-08T09:36:22.696Z,100097
2022-12-08T09:41:23.109Z,100097
2022-12-08T09:46:22.822Z,100092
2022-12-08T09:51:22.783Z,100082
2022-12-08T09:56:22.855Z,100071
2022-12-08T10:01:22.818Z,100059
2022-12-08T10:06:23.048Z,100053
2022-12-08T10:11:22.881Z,100061
2022-12-08T10:16:29.304Z,100067
2022-12-08T10:21:22.851Z,100078
2022-12-08T10:26:22.765Z,100066
2022-12-08T10:31:22.902Z,100062
2022-12-08T10:36:22.939Z,100052
2022-12-08T10:41:22.797Z,100052
2022-12-08T10:46:22.912Z,100021
2022-12-08T10:51:22.737Z,100011
2022-12-08T10:56:22.897Z,100009
2022-12-08T11:01:22.829Z,100008
2022-12-08T11:06:22.847Z,100001
2022-12-08T11:11:27.692Z,99990
2022-12-08T11:16:22.871Z,99991
2022-12-08T11:21:22.962Z,99983
2022-12-08T11:26:22.809Z,99963
2022-12-08T11:31:22.860Z,99958
2022-12-08T11:36:22.807Z,99955
2022-12-08T11:41:22.881Z,99937
2022-12-08T11:46:22.887Z,99927
2022-12-08T11:51:22.891Z,99914
2022-12-08T11:56:22.770Z,99885
2022-12-08T12:01:22.815Z,99883
2022-12-08T12:11:22.830Z,99890
2022-12-08T12:16:22.946Z,99890
2022-12-08T12:21:23.085Z,99894
2022-12-08T12:26:22.918Z,99902
2022-12-08T12:31:23.083Z,99915
2022-12-08T12:36:22.757Z,99906
2022-12-08T12:41:25.499Z,99903
2022-12-08T12:46:22.912Z,99903
2022-12-08T12:51:22.996Z,99907
2022-12-08T12:56:22.831Z,99908
2022-12-08T13:01:23.033Z,99908
2022-12-08T13:06:23.134Z,99883
2022-12-08T13:11:22.928Z,99883
2022-12-08T13:16:22.788Z,99887
2022-12-08T13:21:22.931Z,99884
2022-12-08T13:26:23.032Z,99884
2022-12-08T13:31:22.917Z,99873
2022-12-08T13:36:22.840Z,99873
2022-12-08T13:41:22.833Z,99879
2022-12-08T13:47:09.309Z,99867
2022-12-08T13:53:10.339Z,99881
2022-12-08T13:57:02.398Z,99881
2022-12-08T14:01:23.151Z,99872
2022-12-08T14:06:22.861Z,99872
2022-12-08T14:11:22.834Z,99873
2022-12-08T14:16:23.001Z,99864
2022-12-08T14:21:23.029Z,99876
2022-12-08T14:26:22.894Z,99872
2022-12-08T14:31:23.033Z,99868
2022-12-08T14:36:23.249Z,99879
2022-12-08T14:46:23.288Z,99874
2022-12-08T14:51:22.821Z,99874
2022-12-08T14:56:23.096Z,99875
2022-12-08T15:01:22.894Z,99884
2022-12-08T15:06:22.885Z,99885
2022-12-08T15:11:22.903Z,99864
2022-12-08T15:16:22.998Z,99856
2022-12-08T15:21:23.192Z,99856
2022-12-08T15:26:22.889Z,99863
2022-12-08T15:36:23.273Z,99847
2022-12-08T15:41:23.146Z,99834
2022-12-08T15:46:22.983Z,99828
2022-12-08T15:51:22.904Z,99824
2022-12-08T16:12:03.926Z,99821
2022-12-08T16:16:23.182Z,99822
2022-12-08T16:21:53.278Z,99824
2022-12-08T16:27:35.219Z,99818
2022-12-08T16:31:23.481Z,99830
2022-12-08T16:36:22.881Z,99830
2022-12-08T16:41:22.911Z,99843
2022-12-08T16:46:22.912Z,99848
2022-12-08T16:51:26.804Z,99848
2022-12-08T16:56:28.743Z,99839
2022-12-08T17:01:22.975Z,99839
2022-12-08T17:06:23.083Z,99840
2022-12-08T17:11:23.170Z,99840
2022-12-08T17:16:23.048Z,99835
2022-12-08T17:21:22.959Z,99829
2022-12-08T17:26:22.908Z,99826
2022-12-08T17:31:27.787Z,99818
2022-12-08T17:36:23.345Z,99818
2022-12-08T17:41:23.063Z,99818
2022-12-08T17:46:23.014Z,99833
2022-12-08T17:51:23.045Z,99822
2022-12-08T17:56:23.205Z,99822
2022-12-08T18:01:23.452Z,99816
2022-12-08T18:06:25.726Z,99834
2022-12-08T18:11:23.225Z,99834
2022-12-08T18:16:23.216Z,99824
2022-12-08T18:21:23.549Z,99825
2022-12-08T18:26:23.218Z,99822
2022-12-08T18:36:23.970Z,99800
2022-12-08T18:41:22.956Z,99798
2022-12-08T18:46:23.358Z,99806
2022-12-08T18:51:23.415Z,99814
2022-12-08T18:56:23.092Z,99812
2022-12-08T19:01:24.477Z,99812
2022-12-08T19:06:22.952Z,99813
2022-12-08T19:11:23.040Z,99808
2022-12-08T19:16:23.285Z,99809
2022-12-08T19:21:23.110Z,99817
2022-12-08T19:26:24.464Z,99810
2022-12-08T19:31:23.416Z,99809
2022-12-08T19:36:23.190Z,99813
2022-12-08T19:41:23.255Z,99820
2022-12-08T19:46:23.228Z,99820
2022-12-08T19:51:24.275Z,99812
2022-12-08T19:56:23.893Z,99807
2022-12-08T20:01:23.402Z,99812
2022-12-08T20:06:23.371Z,99812
2022-12-08T20:11:23.198Z,99798
2022-12-08T20:16:23.425Z,99794
2022-12-08T20:21:23.684Z,99791
2022-12-08T20:26:23.074Z,99786
2022-12-08T20:31:23.463Z,99786
2022-12-08T20:36:23.097Z,99780
2022-12-08T20:41:24.067Z,99774
2022-12-08T20:46:24.268Z,99779
2022-12-08T20:51:28.441Z,99794
2022-12-08T20:56:23.650Z,99803
2022-12-08T21:06:23.330Z,99808
2022-12-08T21:11:23.063Z,99808
2022-12-08T21:16:23.392Z,99800
2022-12-08T21:21:23.243Z,99804
2022-12-08T21:26:23.257Z,99807
2022-12-08T21:31:23.633Z,99812
2022-12-08T21:36:23.310Z,99812
2022-12-08T21:41:23.272Z,99792
2022-12-08T21:46:23.093Z,99792
2022-12-08T21:51:23.105Z,99771
2022-12-08T21:56:23.484Z,99771
2022-12-08T22:01:23.131Z,99763
2022-12-08T22:06:23.204Z,99769
2022-12-08T22:11:23.065Z,99769
2022-12-08T22:16:23.397Z,99781
2022-12-08T22:21:23.102Z,99781
2022-12-08T22:26:23.087Z,99780
2022-12-08T22:31:23.434Z,99780
2022-12-08T22:36:23.373Z,99786
2022-12-08T22:41:23.305Z,99790
2022-12-08T22:46:23.417Z,99789
2022-12-08T22:51:23.115Z,99789
2022-12-08T22:56:23.234Z,99784
2022-12-08T23:01:23.554Z,99783
2022-12-08T23:06:23.489Z,99779
2022-12-08T23:11:23.504Z,99789
2022-12-08T23:16:23.249Z,99780
2022-12-08T23:21:23.412Z,99780
2022-12-08T23:26:23.034Z,99779
2022-12-08T23:31:23.577Z,99771
2022-12-08T23:36:23.092Z,99766
2022-12-08T23:41:23.109Z,99767
2022-12-08T23:46:23.193Z,99781
2022-12-08T23:51:23.040Z,99776
2022-12-08T23:56:29.904Z,99765
